createdAt,value
2022-08-29T00:01:23.008Z,101417.38
2022-08-29T00:03:50.351Z,101410.59
2022-08-29T00:06:17.388Z,101414.91
2022-08-29T00:08:44.393Z,101404.34
2022-08-29T00:11:11.392Z,101415.16
2022-08-29T00:13:38.576Z,101421.66
2022-08-29T00:16:06.420Z,101426.25
2022-08-29T00:18:33.701Z,101411.91
2022-08-29T00:21:01.080Z,101416.75
2022-08-29T00:23:28.327Z,101416.75
2022-08-29T00:25:56.161Z,101419.19
2022-08-29T00:28:23.658Z,101414.59
2022-08-29T00:30:51.293Z,101415.66
2022-08-29T00:33:18.983Z,101412.97
2022-08-29T00:35:47.392Z,101417.56
2022-08-29T00:38:18.235Z,101415.94
2022-08-29T00:40:54.726Z,101424.03
2022-08-29T00:43:30.099Z,101413.97
2022-08-29T00:46:46.563Z,101413.44
2022-08-29T00:49:39.741Z,101413.97
2022-08-29T00:52:17.137Z,101416.38
2022-08-29T00:54:49.034Z,101423.13
2022-08-29T00:57:18.794Z,101426.09
2022-08-29T00:59:47.327Z,101419.06
2022-08-29T01:02:14.338Z,101417.41
2022-08-29T01:04:42.132Z,101412.56
2022-08-29T01:07:10.182Z,101416.84
2022-08-29T01:09:39.493Z,101427.69
2022-08-29T01:12:16.785Z,101422.53
2022-08-29T01:14:52.556Z,101437.13
2022-08-29T01:17:39.776Z,101438.72
2022-08-29T01:20:20.501Z,101439.00
2022-08-29T01:23:12.789Z,101448.44
2022-08-29T01:25:46.503Z,101440.03
2022-08-29T01:28:22.831Z,101442.75
2022-08-29T01:31:14.191Z,101457.03
2022-08-29T01:33:59.844Z,101451.56
2022-08-29T01:36:38.942Z,101449.13
2022-08-29T01:39:07.338Z,101459.38
2022-08-29T01:41:35.272Z,101454.50
2022-08-29T01:44:13.943Z,101454.25
2022-08-29T01:46:41.030Z,101461.25
2022-08-29T01:49:11.291Z,101458.53
2022-08-29T01:51:39.357Z,101463.13
2022-08-29T01:54:08.384Z,101464.97
2022-08-29T01:56:43.341Z,101462.28
2022-08-29T01:59:14.634Z,101461.44
2022-08-29T02:01:48.376Z,101464.09
2022-08-29T02:04:15.667Z,101466.22
2022-08-29T02:06:42.952Z,101467.56
2022-08-29T02:09:11.359Z,101458.59
2022-08-29T02:11:40.084Z,101464.50
2022-08-29T02:14:08.181Z,101466.09
2022-08-29T02:16:44.103Z,101456.31
2022-08-29T02:19:11.268Z,101461.16
2022-08-29T02:21:38.592Z,101443.81
2022-08-29T02:24:24.036Z,101451.38
2022-08-29T02:26:53.934Z,101454.28
2022-08-29T02:29:20.784Z,101460.44
2022-08-29T02:31:47.840Z,101453.13
2022-08-29T02:34:15.249Z,101457.41
2022-08-29T02:36:42.964Z,101453.06
2022-08-29T02:39:12.035Z,101451.13
2022-08-29T02:41:39.486Z,101456.50
2022-08-29T02:44:09.328Z,101457.56
2022-08-29T02:46:37.581Z,101459.44
2022-08-29T02:49:04.803Z,101452.88
2022-08-29T02:51:33.803Z,101462.31
2022-08-29T02:54:01.620Z,101468.78
2022-08-29T02:56:30.026Z,101458.50
2022-08-29T02:58:58.020Z,101458.44
2022-08-29T03:01:26.143Z,101472.50
2022-08-29T03:03:53.967Z,101468.41
2022-08-29T03:06:21.722Z,101468.91
2022-08-29T03:08:50.534Z,101466.22
2022-08-29T03:11:18.412Z,101468.09
2022-08-29T03:13:46.874Z,101463.22
2022-08-29T03:16:14.779Z,101460.53
2022-08-29T03:18:42.172Z,101458.06
2022-08-29T03:21:21.936Z,101463.47
2022-08-29T03:23:51.053Z,101462.09
2022-08-29T03:26:19.171Z,101458.84
2022-08-29T03:28:46.172Z,101457.44
2022-08-29T03:31:13.240Z,101462.84
2022-08-29T03:33:41.713Z,101455.81
2022-08-29T03:36:13.894Z,101466.06
2022-08-29T03:38:43.982Z,101450.59
2022-08-29T03:41:11.212Z,101451.41
2022-08-29T03:43:38.141Z,101449.78
2022-08-29T03:46:05.401Z,101455.69
2022-08-29T03:48:33.625Z,101460.50
2022-08-29T03:51:00.781Z,101452.09
2022-08-29T03:53:27.897Z,101461.25
2022-08-29T03:55:55.154Z,101448.84
2022-08-29T03:58:22.018Z,101446.66
2022-08-29T04:00:49.237Z,101450.97
2022-08-29T04:03:16.731Z,101455.56
2022-08-29T04:05:43.959Z,101450.66
2022-08-29T04:08:11.064Z,101461.44
2022-08-29T04:10:39.028Z,101461.13
2022-08-29T04:13:08.221Z,101464.41
2022-08-29T04:15:37.321Z,101458.69
2022-08-29T04:18:07.208Z,101460.81
2022-08-29T04:20:38.356Z,101456.50
2022-08-29T04:23:06.391Z,101452.16
2022-08-29T04:25:37.388Z,101456.75
2022-08-29T04:28:09.302Z,101459.94
2022-08-29T04:30:38.417Z,101474.25
2022-08-29T04:33:05.851Z,101467.22
2022-08-29T04:35:33.078Z,101475.31
2022-08-29T04:37:59.992Z,101476.13
2022-08-29T04:40:27.081Z,101470.97
2022-08-29T04:42:54.132Z,101475.63
2022-08-29T04:45:23.124Z,101472.19
2022-08-29T04:47:50.293Z,101475.19
2022-08-29T04:50:22.312Z,101476.94
2022-08-29T04:52:50.700Z,101472.44
2022-08-29T04:55:22.611Z,101469.81
2022-08-29T04:57:54.132Z,101478.03
2022-08-29T05:00:27.114Z,101477.59
2022-08-29T05:02:54.345Z,101469.03
2022-08-29T05:05:21.800Z,101464.53
2022-08-29T05:07:48.843Z,101463.00
2022-08-29T05:10:19.402Z,101468.75
2022-08-29T05:12:46.943Z,101470.69
2022-08-29T05:15:15.510Z,101476.16
2022-08-29T05:17:43.000Z,101477.25
2022-08-29T05:20:10.728Z,101485.13
2022-08-29T05:22:39.331Z,101489.75
2022-08-29T05:25:07.090Z,101493.31
2022-08-29T05:27:34.349Z,101492.28
2022-08-29T05:30:04.104Z,101492.53
2022-08-29T05:32:31.130Z,101499.56
2022-08-29T05:34:58.837Z,101500.75
2022-08-29T05:37:26.498Z,101494.84
2022-08-29T05:39:54.181Z,101507.06
2022-08-29T05:42:22.708Z,101494.94
2022-08-29T05:44:50.095Z,101502.03
2022-08-29T05:47:19.154Z,101510.78
2022-08-29T05:49:48.932Z,101507.38
2022-08-29T05:52:19.380Z,101514.47
2022-08-29T05:54:46.750Z,101507.25
2022-08-29T05:57:19.325Z,101512.69
2022-08-29T05:59:49.539Z,101518.66
2022-08-29T06:02:17.956Z,101514.09
2022-08-29T06:04:46.041Z,101515.50
2022-08-29T06:07:14.387Z,101504.19
2022-08-29T06:09:43.258Z,101502.63
2022-08-29T06:12:13.545Z,101502.16
2022-08-29T06:14:41.481Z,101497.59
2022-08-29T06:17:17.914Z,101505.22
2022-08-29T06:19:45.422Z,101502.22
2022-08-29T06:22:13.011Z,101512.28
2022-08-29T06:24:44.463Z,101513.66
2022-08-29T06:27:13.035Z,101514.22
2022-08-29T06:29:43.627Z,101508.78
2022-08-29T06:32:12.907Z,101517.22
2022-08-29T06:34:40.302Z,101515.63
2022-08-29T06:37:07.494Z,101513.19
2022-08-29T06:39:34.772Z,101517.28
2022-08-29T06:42:02.343Z,101514.56
2022-08-29T06:44:31.644Z,101509.44
2022-08-29T06:46:59.487Z,101517.28
2022-08-29T06:49:27.878Z,101516.50
2022-08-29T06:51:58.101Z,101518.66
2022-08-29T06:54:28.921Z,101515.69
2022-08-29T06:56:57.799Z,101517.03
2022-08-29T06:59:25.894Z,101517.03
2022-08-29T07:01:55.154Z,101523.03
2022-08-29T07:04:22.398Z,101529.28
2022-08-29T07:06:50.177Z,101526.31
2022-08-29T07:09:17.231Z,101532.53
2022-08-29T07:11:44.412Z,101523.84
2022-08-29T07:14:12.808Z,101533.34
2022-08-29T07:16:41.206Z,101525.78
2022-08-29T07:19:10.379Z,101534.44
2022-08-29T07:21:38.756Z,101533.91
2022-08-29T07:24:07.325Z,101535.50
2022-08-29T07:26:41.406Z,101537.66
2022-08-29T07:29:15.540Z,101533.31
2022-08-29T07:31:42.980Z,101539.31
2022-08-29T07:34:10.637Z,101543.09
2022-08-29T07:36:38.709Z,101536.31
2022-08-29T07:39:11.901Z,101548.50
2022-08-29T07:41:41.412Z,101549.31
2022-08-29T07:44:09.459Z,101555.03
2022-08-29T07:46:37.150Z,101561.53
2022-08-29T07:49:04.669Z,101554.47
2022-08-29T07:51:31.847Z,101550.41
2022-08-29T07:53:59.088Z,101558.81
2022-08-29T07:56:40.103Z,101559.63
2022-08-29T07:59:07.851Z,101546.06
2022-08-29T08:01:35.628Z,101563.44
2022-08-29T08:04:03.469Z,101565.06
2022-08-29T08:06:30.709Z,101565.84
2022-08-29T08:08:57.784Z,101570.19
2022-08-29T08:11:26.126Z,101569.38
2022-08-29T08:13:54.943Z,101580.75
2022-08-29T08:16:26.389Z,101578.06
2022-08-29T08:18:55.255Z,101571.81
2022-08-29T08:21:24.219Z,101578.84
2022-08-29T08:23:52.317Z,101578.31
2022-08-29T08:26:20.462Z,101574.50
2022-08-29T08:28:48.203Z,101572.59
2022-08-29T08:31:17.238Z,101585.34
2022-08-29T08:33:46.171Z,101574.97
2022-08-29T08:36:25.368Z,101580.09
2022-08-29T08:38:54.006Z,101592.00
2022-08-29T08:41:43.442Z,101593.06
2022-08-29T08:44:35.068Z,101591.97
2022-08-29T08:47:08.245Z,101580.81
2022-08-29T08:49:55.295Z,101587.56
2022-08-29T08:53:02.785Z,101578.38
2022-08-29T08:55:46.155Z,101587.56
2022-08-29T08:58:56.188Z,101587.81
2022-08-29T09:01:34.440Z,101581.28
2022-08-29T09:04:54.288Z,101584.50
2022-08-29T09:07:48.419Z,101585.56
2022-08-29T09:10:24.372Z,101591.53
2022-08-29T09:14:04.148Z,101578.69
2022-08-29T09:16:46.402Z,101588.94
2022-08-29T09:19:17.222Z,101579.16
2022-08-29T09:21:51.993Z,101578.50
2022-08-29T09:24:50.333Z,101590.59
2022-08-29T09:27:19.901Z,101584.81
2022-08-29T09:29:49.553Z,101586.06
2022-08-29T09:32:21.741Z,101582.69
2022-08-29T09:35:08.079Z,101593.47
2022-08-29T09:37:37.073Z,101586.63
2022-08-29T09:40:11.311Z,101589.00
2022-08-29T09:42:43.641Z,101582.56
2022-08-29T09:45:25.111Z,101588.13
2022-08-29T09:48:18.165Z,101581.88
2022-08-29T09:50:45.990Z,101586.44
2022-08-29T09:53:24.221Z,101581.22
2022-08-29T09:55:53.311Z,101586.38
2022-08-29T09:58:20.403Z,101586.59
2022-08-29T10:01:17.766Z,101582.41
2022-08-29T10:04:02.248Z,101588.25
2022-08-29T10:06:44.234Z,101590.03
2022-08-29T10:09:27.772Z,101583.91
2022-08-29T10:12:12.723Z,101580.06
2022-08-29T10:14:50.396Z,101586.34
2022-08-29T10:17:55.864Z,101589.66
2022-08-29T10:20:36.003Z,101584.72
2022-08-29T10:23:17.578Z,101574.75
2022-08-29T10:25:44.757Z,101576.97
2022-08-29T10:28:52.562Z,101585.97
2022-08-29T10:31:50.589Z,101586.00
2022-08-29T10:34:45.899Z,101583.28
2022-08-29T10:37:36.579Z,101585.13
2022-08-29T10:40:16.785Z,101588.25
2022-08-29T10:42:46.014Z,101590.47
2022-08-29T10:45:39.200Z,101600.38
2022-08-29T10:48:22.743Z,101598.53
2022-08-29T10:51:26.179Z,101589.56
2022-08-29T10:54:05.208Z,101584.44
2022-08-29T10:56:40.798Z,101590.16
2022-08-29T10:59:31.650Z,101590.06
2022-08-29T11:02:29.514Z,101589.38
2022-08-29T11:05:03.899Z,101582.69
2022-08-29T11:07:37.056Z,101589.06
2022-08-29T11:10:27.930Z,101592.72
2022-08-29T11:13:28.890Z,101585.81
2022-08-29T11:16:17.726Z,101580.59
2022-08-29T11:18:50.041Z,101562.28
2022-08-29T11:21:38.405Z,101558.19
2022-08-29T11:24:07.381Z,101565.91
2022-08-29T11:26:43.470Z,101561.59
2022-08-29T11:29:42.010Z,101558.50
2022-08-29T11:32:36.131Z,101553.03
2022-08-29T11:35:31.249Z,101524.84
2022-08-29T11:38:45.106Z,101525.63
2022-08-29T11:41:29.168Z,101539.81
2022-08-29T11:44:42.389Z,101541.25
2022-08-29T11:47:46.755Z,101535.28
2022-08-29T11:50:17.073Z,101536.81
2022-08-29T11:53:24.381Z,101523.00
2022-08-29T11:56:12.355Z,101531.06
2022-08-29T11:58:43.029Z,101535.69
2022-08-29T12:01:35.971Z,101530.41
2022-08-29T12:04:08.308Z,101533.84
2022-08-29T12:07:01.591Z,101535.59
2022-08-29T12:09:35.154Z,101525.97
2022-08-29T12:12:05.239Z,101523.75
2022-08-29T12:14:52.699Z,101526.25
2022-08-29T12:17:23.351Z,101513.63
2022-08-29T12:19:56.465Z,101521.13
2022-08-29T12:22:47.046Z,101524.47
2022-08-29T12:25:55.252Z,101524.28
2022-08-29T12:28:48.074Z,101521.00
2022-08-29T12:32:18.756Z,101526.81
2022-08-29T12:35:16.135Z,101537.47
2022-08-29T12:38:31.453Z,101525.78
2022-08-29T12:41:04.559Z,101537.91
2022-08-29T12:43:37.706Z,101532.41
2022-08-29T12:46:48.036Z,101524.97
2022-08-29T12:49:50.993Z,101527.63
2022-08-29T12:52:29.160Z,101528.84
2022-08-29T12:55:03.289Z,101535.41
2022-08-29T12:57:36.837Z,101539.34
2022-08-29T13:00:16.633Z,101533.13
2022-08-29T13:03:03.799Z,101533.53
2022-08-29T13:05:33.535Z,101542.97
2022-08-29T13:08:09.620Z,101536.66
2022-08-29T13:10:53.402Z,101544.44
2022-08-29T13:13:23.464Z,101528.75
2022-08-29T13:15:53.872Z,101531.47
2022-08-29T13:18:21.839Z,101523.97
2022-08-29T13:21:07.647Z,101526.28
2022-08-29T13:23:47.863Z,101517.19
2022-08-29T13:26:14.954Z,101512.50
2022-08-29T13:28:44.675Z,101520.06
2022-08-29T13:31:11.874Z,101505.69
2022-08-29T13:34:04.327Z,101502.19
2022-08-29T13:36:46.423Z,101512.31
2022-08-29T13:39:19.175Z,101496.38
2022-08-29T13:42:14.034Z,101499.81
2022-08-29T13:44:53.352Z,101507.84
2022-08-29T13:47:25.620Z,101499.84
2022-08-29T13:50:02.019Z,101504.19
2022-08-29T13:52:31.711Z,101499.59
2022-08-29T13:54:59.987Z,101489.91
2022-08-29T13:57:29.504Z,101489.78
2022-08-29T14:00:01.049Z,101496.97
2022-08-29T14:02:33.977Z,101495.59
2022-08-29T14:05:01.175Z,101490.06
2022-08-29T14:07:31.308Z,101495.53
2022-08-29T14:09:58.874Z,101485.09
2022-08-29T14:12:32.875Z,101478.19
2022-08-29T14:15:04.123Z,101489.44
2022-08-29T14:17:36.097Z,101478.41
2022-08-29T14:20:07.440Z,101488.88
2022-08-29T14:22:34.754Z,101483.84
2022-08-29T14:25:02.875Z,101484.88
2022-08-29T14:27:29.835Z,101485.13
2022-08-29T14:29:57.007Z,101470.38
2022-08-29T14:32:24.257Z,101472.56
2022-08-29T14:34:54.364Z,101469.91
2022-08-29T14:37:21.768Z,101478.84
2022-08-29T14:39:49.908Z,101466.44
2022-08-29T14:42:18.209Z,101471.28
2022-08-29T14:44:45.994Z,101472.88
2022-08-29T14:47:13.643Z,101471.81
2022-08-29T14:49:41.314Z,101468.47
2022-08-29T14:52:08.582Z,101468.88
2022-08-29T14:54:36.021Z,101467.63
2022-08-29T14:57:03.283Z,101468.50
2022-08-29T14:59:30.231Z,101459.44
2022-08-29T15:01:57.362Z,101442.25
2022-08-29T15:04:36.736Z,101449.19
2022-08-29T15:07:10.739Z,101455.72
2022-08-29T15:09:39.206Z,101449.72
2022-08-29T15:12:06.639Z,101460.69
2022-08-29T15:14:34.473Z,101444.19
2022-08-29T15:17:03.458Z,101455.03
2022-08-29T15:20:31.856Z,101438.75
2022-08-29T15:22:18.801Z,101451.66
2022-08-29T15:24:45.757Z,101457.72
2022-08-29T15:27:13.101Z,101447.13
2022-08-29T15:29:40.807Z,101434.34
2022-08-29T15:32:09.418Z,101437.69
2022-08-29T15:34:36.568Z,101436.88
2022-08-29T15:37:04.939Z,101434.53
2022-08-29T15:39:32.778Z,101425.78
2022-08-29T15:42:03.825Z,101430.22
2022-08-29T15:44:30.869Z,101440.22
2022-08-29T15:46:58.569Z,101447.25
2022-08-29T15:49:27.186Z,101443.97
2022-08-29T15:51:55.375Z,101443.19
2022-08-29T15:54:24.373Z,101445.06
2022-08-29T15:56:52.441Z,101442.91
2022-08-29T15:59:31.017Z,101438.41
2022-08-29T16:02:10.507Z,101445.66
2022-08-29T16:04:39.404Z,101445.50
2022-08-29T16:07:06.535Z,101444.25
2022-08-29T16:09:33.648Z,101449.78
2022-08-29T16:12:00.599Z,101443.22
2022-08-29T16:14:58.194Z,101443.31
2022-08-29T16:17:15.303Z,101450.19
2022-08-29T16:19:42.727Z,101447.88
2022-08-29T16:22:10.462Z,101442.81
2022-08-29T16:24:38.303Z,101440.09
2022-08-29T16:27:06.574Z,101441.06
2022-08-29T16:29:34.043Z,101450.09
2022-08-29T16:32:01.867Z,101454.88
2022-08-29T16:34:29.343Z,101439.84
2022-08-29T16:37:01.327Z,101443.94
2022-08-29T16:39:29.193Z,101450.81
2022-08-29T16:41:56.795Z,101439.53
2022-08-29T16:44:24.568Z,101440.72
2022-08-29T16:46:52.144Z,101454.06
2022-08-29T16:49:19.846Z,101449.94
2022-08-29T16:51:46.928Z,101447.78
2022-08-29T16:54:15.220Z,101456.25
2022-08-29T16:56:42.779Z,101454.41
2022-08-29T16:59:12.403Z,101452.88
2022-08-29T17:01:49.800Z,101461.97
2022-08-29T17:04:24.454Z,101469.59
2022-08-29T17:06:52.493Z,101459.44
2022-08-29T17:09:22.218Z,101462.06
2022-08-29T17:11:51.446Z,101462.91
2022-08-29T17:14:20.442Z,101467.72
2022-08-29T17:16:51.582Z,101470.13
2022-08-29T17:19:20.690Z,101467.06
2022-08-29T17:21:49.136Z,101467.00
2022-08-29T17:24:16.579Z,101468.78
2022-08-29T17:26:46.964Z,101465.84
2022-08-29T17:29:15.150Z,101467.91
2022-08-29T17:31:42.686Z,101468.81
2022-08-29T17:34:10.636Z,101464.34
2022-08-29T17:36:40.435Z,101476.41
2022-08-29T17:39:08.001Z,101474.56
2022-08-29T17:41:37.119Z,101476.28
2022-08-29T17:44:07.145Z,101470.66
2022-08-29T17:46:35.003Z,101478.31
2022-08-29T17:49:07.487Z,101474.81
2022-08-29T17:51:36.478Z,101469.72
2022-08-29T17:54:08.261Z,101478.50
2022-08-29T17:56:46.524Z,101483.16
2022-08-29T17:59:18.613Z,101470.94
2022-08-29T18:01:46.789Z,101483.81
2022-08-29T18:04:14.270Z,101484.66
2022-08-29T18:06:42.402Z,101481.13
2022-08-29T18:09:09.878Z,101482.50
2022-08-29T18:11:47.573Z,101485.53
2022-08-29T18:14:14.701Z,101493.94
2022-08-29T18:16:41.607Z,101493.91
2022-08-29T18:19:09.688Z,101509.34
2022-08-29T18:21:37.165Z,101498.88
2022-08-29T18:24:04.181Z,101510.25
2022-08-29T18:26:34.529Z,101505.88
2022-08-29T18:29:01.808Z,101508.25
2022-08-29T18:31:28.719Z,101506.47
2022-08-29T18:34:00.561Z,101510.69
2022-08-29T18:36:30.892Z,101517.41
2022-08-29T18:38:59.601Z,101522.94
2022-08-29T18:41:26.971Z,101523.66
2022-08-29T18:43:54.318Z,101525.44
2022-08-29T18:46:21.497Z,101521.72
2022-08-29T18:48:48.622Z,101537.91
2022-08-29T18:51:15.685Z,101536.13
2022-08-29T18:53:42.645Z,101540.88
2022-08-29T18:56:10.154Z,101537.94
2022-08-29T18:58:37.915Z,101547.84
2022-08-29T19:01:17.464Z,101546.03
2022-08-29T19:03:55.805Z,101551.56
2022-08-29T19:06:25.770Z,101554.63
2022-08-29T19:08:54.682Z,101563.19
2022-08-29T19:11:21.808Z,101568.41
2022-08-29T19:13:52.406Z,101561.16
2022-08-29T19:16:21.262Z,101561.44
2022-08-29T19:18:48.737Z,101563.16
2022-08-29T19:21:16.267Z,101568.63
2022-08-29T19:23:52.549Z,101569.75
2022-08-29T19:26:32.729Z,101579.59
2022-08-29T19:29:04.855Z,101575.03
2022-08-29T19:31:31.948Z,101573.19
2022-08-29T19:33:59.560Z,101585.72
2022-08-29T19:36:28.605Z,101590.66
2022-08-29T19:38:55.601Z,101588.78
2022-08-29T19:41:23.004Z,101589.34
2022-08-29T19:43:52.600Z,101590.44
2022-08-29T19:46:23.773Z,101596.97
2022-08-29T19:48:52.285Z,101600.00
2022-08-29T19:51:24.755Z,101584.53
2022-08-29T19:53:56.560Z,101588.63
2022-08-29T19:56:26.572Z,101592.44
2022-08-29T19:58:54.165Z,101589.72
2022-08-29T20:01:21.425Z,101607.66
2022-08-29T20:03:48.622Z,101598.97
2022-08-29T20:06:15.952Z,101599.53
2022-08-29T20:08:46.714Z,101599.53
2022-08-29T20:11:21.213Z,101606.06
2022-08-29T20:13:51.498Z,101611.78
2022-08-29T20:16:24.525Z,101617.47
2022-08-29T20:18:52.517Z,101615.31
2022-08-29T20:21:23.525Z,101614.22
2022-08-29T20:23:57.829Z,101611.78
2022-08-29T20:26:31.450Z,101623.72
2022-08-29T20:29:01.050Z,101618.03
2022-08-29T20:31:28.843Z,101622.94
2022-08-29T20:33:56.113Z,101619.91
2022-08-29T20:36:43.196Z,101625.63
2022-08-29T20:39:13.477Z,101611.78
2022-08-29T20:41:40.926Z,101626.97
2022-08-29T20:44:09.923Z,101632.41
2022-08-29T20:46:41.975Z,101637.84
2022-08-29T20:49:10.506Z,101625.34
2022-08-29T20:51:38.587Z,101637.03
2022-08-29T20:54:06.478Z,101640.00
2022-08-29T20:56:33.329Z,101642.19
2022-08-29T20:59:00.218Z,101636.47
2022-08-29T21:01:27.972Z,101632.94
2022-08-29T21:04:14.127Z,101634.84
2022-08-29T21:06:48.848Z,101637.84
2022-08-29T21:09:16.160Z,101649.75
2022-08-29T21:11:43.147Z,101654.34
2022-08-29T21:14:10.298Z,101646.75
2022-08-29T21:16:37.621Z,101655.16
2022-08-29T21:19:09.889Z,101649.44
2022-08-29T21:21:38.965Z,101647.28
2022-08-29T21:24:07.911Z,101653.78
2022-08-29T21:26:35.276Z,101651.88
2022-08-29T21:29:04.621Z,101645.63
2022-08-29T21:31:33.432Z,101653.22
2022-08-29T21:34:05.127Z,101646.72
2022-08-29T21:36:36.228Z,101638.56
2022-08-29T21:39:06.068Z,101652.66
2022-08-29T21:41:36.899Z,101656.19
2022-08-29T21:44:04.160Z,101649.66
2022-08-29T21:46:35.217Z,101653.72
2022-08-29T21:49:06.777Z,101662.94
2022-08-29T21:51:34.909Z,101647.72
2022-08-29T21:54:02.759Z,101651.78
2022-08-29T21:56:32.178Z,101658.28
2022-08-29T21:59:01.194Z,101671.81
2022-08-29T22:01:39.132Z,101655.81
2022-08-29T22:04:10.418Z,101671.53
2022-08-29T22:06:41.047Z,101667.16
2022-08-29T22:09:12.522Z,101668.25
2022-08-29T22:11:40.892Z,101679.88
2022-08-29T22:14:09.819Z,101686.66
2022-08-29T22:16:37.939Z,101685.56
2022-08-29T22:19:17.293Z,101686.38
2022-08-29T22:21:51.899Z,101689.06
2022-08-29T22:24:19.159Z,101689.31
2022-08-29T22:26:48.005Z,101698.78
2022-08-29T22:29:19.991Z,101692.56
2022-08-29T22:31:47.208Z,101688.16
2022-08-29T22:34:17.546Z,101675.94
2022-08-29T22:36:44.503Z,101694.09
2022-08-29T22:39:11.752Z,101695.19
2022-08-29T22:41:40.630Z,101680.78
2022-08-29T22:46:58.632Z,101687.81
2022-08-29T22:49:33.122Z,101690.81
2022-08-29T22:52:01.311Z,101689.19
2022-08-29T22:54:37.544Z,101688.09
2022-08-29T22:57:07.873Z,101683.22
2022-08-29T22:59:36.144Z,101683.22
2022-08-29T23:02:04.618Z,101689.72
2022-08-29T23:04:32.296Z,101694.88
2022-08-29T23:06:59.916Z,101693.56
2022-08-29T23:09:28.272Z,101690.56
2022-08-29T23:12:03.882Z,101690.31
2022-08-29T23:14:35.738Z,101692.47
2022-08-29T23:17:07.796Z,101699.53
2022-08-29T23:19:36.504Z,101684.88
2022-08-29T23:22:06.434Z,101690.28
2022-08-29T23:24:33.805Z,101693.56
2022-08-29T23:27:01.331Z,101686.25
2022-08-29T23:29:30.859Z,101681.91
2022-08-29T23:31:58.110Z,101687.56
2022-08-29T23:34:25.028Z,101687.03
2022-08-29T23:36:52.388Z,101676.19
2022-08-29T23:39:19.454Z,101677.78
2022-08-29T23:41:46.373Z,101676.72
2022-08-29T23:44:13.543Z,101684.84
2022-08-29T23:46:40.482Z,101683.72
2022-08-29T23:49:07.730Z,101683.19
2022-08-29T23:51:35.880Z,101678.28
2022-08-29T23:54:02.955Z,101676.09
2022-08-29T23:56:29.829Z,101672.56
2022-08-29T23:58:57.949Z,101676.06
